Time;durP1;ratioP1;P1;durP2;ratioP2;P2;SDS_P1;SDS_P2;PMS_P1;PMS_P2;Temp;Humidity;BMP_temperature;BMP_pressure;BME280_temperature;BME280_humidity;BME280_pressure;Samples;Min_cycle;Max_cycle;Signal;HPM_P1;HPM_P2
2021/08/02 00:00:17;;;;;;;3.22;1.90;;;;;;;21.00;49.56;101467.00;4950949;29;20046;-69
2021/08/02 00:02:56;;;;;;;3.35;1.58;;;;;;;20.98;49.55;101469.84;4921235;29;20035;-70
2021/08/02 00:05:22;;;;;;;2.78;1.70;;;;;;;21.00;49.86;101467.00;4951704;28;20027;-69
2021/08/02 00:07:55;;;;;;;3.33;1.67;;;;;;;20.98;49.39;101467.19;4950143;29;20058;-69
2021/08/02 00:10:21;;;;;;;3.58;1.70;;;;;;;21.00;49.50;101469.69;4950987;29;20496;-69
2021/08/02 00:12:51;;;;;;;3.15;1.52;;;;;;;20.98;49.44;101471.69;4951185;29;20432;-69
2021/08/02 00:15:18;;;;;;;3.40;1.90;;;;;;;20.99;49.27;101470.66;4951526;29;20031;-69
2021/08/02 00:17:46;;;;;;;3.08;1.90;;;;;;;20.98;49.54;101469.00;4951089;29;20577;-69
2021/08/02 00:20:15;;;;;;;2.58;1.52;;;;;;;20.97;48.95;101475.38;4938273;29;20027;-69
2021/08/02 00:22:41;;;;;;;2.35;1.33;;;;;;;20.97;49.17;101478.84;4950958;29;20400;-69
2021/08/02 00:25:08;;;;;;;3.03;1.55;;;;;;;20.96;49.13;101477.22;4950552;28;20051;-69
2021/08/02 00:27:34;;;;;;;2.60;1.50;;;;;;;20.96;49.08;101479.06;4951343;28;20412;-69
2021/08/02 00:30:02;;;;;;;3.30;1.35;;;;;;;20.96;49.07;101479.06;4951367;28;20122;-70
2021/08/02 00:32:28;;;;;;;3.03;1.42;;;;;;;20.96;49.02;101487.06;4950938;28;20485;-69
2021/08/02 00:34:53;;;;;;;2.47;1.60;;;;;;;20.96;48.52;101476.38;4951035;28;20038;-69
2021/08/02 00:37:27;;;;;;;2.08;1.45;;;;;;;20.94;48.81;101485.41;4951513;28;20031;-69
2021/08/02 00:40:12;;;;;;;2.57;1.40;;;;;;;20.91;48.41;101475.13;4950779;28;20034;-69
2021/08/02 00:43:02;;;;;;;2.25;1.27;;;;;;;20.89;48.31;101479.81;4958412;28;20026;-69
2021/08/02 00:45:32;;;;;;;3.70;1.60;;;;;;;20.93;48.52;101483.75;4962032;28;20027;-69
2021/08/02 00:48:09;;;;;;;3.38;1.52;;;;;;;20.93;48.44;101478.41;4962171;28;20107;-69
2021/08/02 00:50:52;;;;;;;4.53;1.70;;;;;;;20.91;48.62;101487.63;4962535;28;20093;-70
2021/08/02 00:53:24;;;;;;;2.97;1.60;;;;;;;20.93;48.59;101485.59;4959396;28;20035;-70
2021/08/02 00:55:56;;;;;;;2.47;1.40;;;;;;;20.94;48.31;101481.91;4963194;28;20503;-69
2021/08/02 00:58:23;;;;;;;2.03;1.42;;;;;;;20.95;48.51;101488.91;4956303;28;20027;-69
2021/08/02 01:00:51;;;;;;;3.47;1.52;;;;;;;20.94;48.42;101488.06;4948968;28;20480;-69
2021/08/02 01:03:17;;;;;;;3.45;1.35;;;;;;;20.96;48.34;101484.38;4957691;28;20420;-70
2021/08/02 01:05:45;;;;;;;3.80;1.50;;;;;;;20.96;48.02;101490.53;4933370;29;20413;-69
2021/08/02 01:08:25;;;;;;;3.33;1.48;;;;;;;20.93;48.36;101488.25;4950187;28;20436;-69
2021/08/02 01:10:54;;;;;;;3.30;1.58;;;;;;;20.97;47.99;101483.38;4950646;29;20094;-69
2021/08/02 01:13:22;;;;;;;2.70;1.40;;;;;;;20.98;48.29;101495.69;4950454;28;20110;-70
2021/08/02 01:15:51;;;;;;;3.47;1.50;;;;;;;20.97;48.35;101489.53;4949892;28;20047;-69
2021/08/02 01:18:22;;;;;;;2.80;1.50;;;;;;;20.97;47.88;101494.03;4950629;28;20174;-70
2021/08/02 01:20:53;;;;;;;1.95;1.30;;;;;;;20.97;47.90;101496.69;4950332;28;20167;-69
2021/08/02 01:23:20;;;;;;;2.67;1.20;;;;;;;20.99;47.73;101498.19;4950100;28;20074;-69
2021/08/02 01:25:46;;;;;;;5.32;1.73;;;;;;;20.98;47.94;101498.34;4946736;28;20556;-69
2021/08/02 01:28:14;;;;;;;3.83;1.63;;;;;;;20.97;47.64;101500.19;4956038;28;20123;-69
2021/08/02 01:30:45;;;;;;;3.42;1.23;;;;;;;20.96;47.81;101509.22;4957785;28;20039;-69
2021/08/02 01:33:10;;;;;;;1.80;1.40;;;;;;;20.98;47.83;101517.03;4957277;28;20058;-69
2021/08/02 01:35:37;;;;;;;3.88;1.45;;;;;;;20.96;47.76;101506.56;4950329;28;20429;-69
2021/08/02 01:38:03;;;;;;;2.63;1.23;;;;;;;20.97;47.72;101507.38;4950718;28;20453;-69
2021/08/02 01:40:30;;;;;;;2.35;1.45;;;;;;;20.97;47.74;101510.03;4950488;28;20035;-69
2021/08/02 01:43:03;;;;;;;2.13;1.35;;;;;;;20.97;47.41;101512.72;4950484;28;20044;-69
2021/08/02 01:45:29;;;;;;;3.20;1.25;;;;;;;20.97;47.57;101515.38;4950956;28;20094;-69
2021/08/02 01:48:10;;;;;;;2.25;1.10;;;;;;;20.92;47.41;101500.78;4950913;28;20035;-69
2021/08/02 01:50:59;;;;;;;3.38;1.38;;;;;;;20.94;47.44;101504.06;4950661;28;20039;-69
2021/08/02 01:53:29;;;;;;;2.78;1.17;;;;;;;20.94;47.51;101509.41;4950543;28;20031;-69
2021/08/02 01:56:13;;;;;;;2.50;1.40;;;;;;;20.92;47.36;101508.78;4950273;28;20046;-69
2021/08/02 01:58:49;;;;;;;2.72;1.30;;;;;;;20.93;47.67;101499.75;4950603;28;20028;-69
2021/08/02 02:01:15;;;;;;;3.30;1.45;;;;;;;20.97;47.65;101507.38;4959791;28;20038;-69
2021/08/02 02:03:41;;;;;;;1.70;1.33;;;;;;;20.97;47.28;101508.19;4966103;28;20106;-69
2021/08/02 02:06:12;;;;;;;1.88;1.30;;;;;;;20.97;47.45;101507.38;4963583;28;20054;-69
2021/08/02 02:08:44;;;;;;;2.03;1.27;;;;;;;20.96;47.11;101514.56;4966281;28;20034;-69
2021/08/02 02:11:10;;;;;;;2.78;1.27;;;;;;;20.96;46.99;101509.22;4963029;28;20046;-69
2021/08/02 02:13:41;;;;;;;3.17;1.38;;;;;;;20.97;47.04;101516.19;4949030;28;20440;-70
2021/08/02 02:16:08;;;;;;;2.95;1.45;;;;;;;20.97;46.99;101512.72;4963244;28;20457;-69
2021/08/02 02:18:39;;;;;;;3.00;1.23;;;;;;;20.96;47.13;101513.72;4966104;28;20034;-69
2021/08/02 02:21:05;;;;;;;2.13;1.35;;;;;;;20.96;47.13;101514.56;4963828;28;20512;-69
2021/08/02 02:23:32;;;;;;;2.78;1.35;;;;;;;20.96;46.66;101508.38;4965104;28;20134;-69
2021/08/02 02:25:59;;;;;;;1.98;1.15;;;;;;;20.96;46.60;101509.22;4965098;28;20484;-69
2021/08/02 02:28:25;;;;;;;3.20;1.40;;;;;;;20.97;46.85;101510.03;4947174;28;20346;-69
2021/08/02 02:30:53;;;;;;;2.88;1.20;;;;;;;20.96;46.89;101509.22;4962791;28;20054;-69
2021/08/02 02:33:19;;;;;;;2.28;1.27;;;;;;;20.96;46.99;101508.38;4966628;28;20086;-69
2021/08/02 02:35:46;;;;;;;3.85;1.35;;;;;;;20.96;46.52;101509.22;4970494;28;20038;-69
2021/08/02 02:38:14;;;;;;;2.53;1.23;;;;;;;20.97;46.68;101502.03;4967766;28;20027;-69
2021/08/02 02:40:43;;;;;;;2.90;1.20;;;;;;;20.97;46.41;101507.38;4970256;28;20031;-69
2021/08/02 02:43:11;;;;;;;2.92;1.45;;;;;;;20.96;46.38;101497.72;4969165;28;20031;-69
2021/08/02 02:45:37;;;;;;;1.58;1.05;;;;;;;20.95;46.78;101504.91;4969428;28;20392;-68
2021/08/02 02:48:05;;;;;;;1.60;1.10;;;;;;;20.96;46.44;101505.72;4970542;28;20031;-69
2021/08/02 02:50:32;;;;;;;3.50;1.30;;;;;;;20.96;46.36;101509.22;4968103;28;20035;-69
2021/08/02 02:52:59;;;;;;;2.60;1.38;;;;;;;20.96;46.37;101505.72;4969869;28;20043;-69
2021/08/02 02:55:26;;;;;;;2.00;1.23;;;;;;;20.96;46.60;101503.88;4967795;28;20035;-70
2021/08/02 02:57:52;;;;;;;2.03;1.30;;;;;;;20.97;46.38;101507.38;4965805;28;20285;-70
2021/08/02 03:00:19;;;;;;;1.92;1.23;;;;;;;20.96;46.31;101503.06;4951688;29;20547;-69
2021/08/02 03:02:48;;;;;;;2.28;1.40;;;;;;;20.96;46.34;101497.72;4952424;29;20122;-69
2021/08/02 03:05:16;;;;;;;1.77;1.08;;;;;;;20.96;46.37;101500.38;4953320;29;20039;-69
2021/08/02 03:07:43;;;;;;;1.70;1.10;;;;;;;20.96;46.20;101503.06;4952506;29;20039;-69
2021/08/02 03:10:11;;;;;;;1.77;1.17;;;;;;;20.95;46.20;101496.91;4951680;29;20138;-69
2021/08/02 03:12:37;;;;;;;2.25;1.30;;;;;;;20.97;46.52;101510.03;4953233;29;20155;-69
2021/08/02 03:15:03;;;;;;;1.77;1.25;;;;;;;20.96;46.24;101508.38;4952112;29;20057;-69
2021/08/02 03:17:29;;;;;;;2.60;1.35;;;;;;;20.96;46.57;101503.06;4952910;29;20043;-69
2021/08/02 03:19:55;;;;;;;1.60;1.15;;;;;;;20.96;46.31;101495.06;4951957;28;20034;-69
2021/08/02 03:22:35;;;;;;;2.22;1.30;;;;;;;20.96;46.42;101503.06;4952934;28;20035;-69
2021/08/02 03:25:22;;;;;;;2.05;0.98;;;;;;;20.92;46.15;101508.78;4951542;28;20047;-69
2021/08/02 03:28:05;;;;;;;2.80;1.50;;;;;;;20.92;46.50;101500.78;4952062;29;20373;-69
2021/08/02 03:30:36;;;;;;;1.40;1.10;;;;;;;20.94;46.48;101509.41;4948038;29;20058;-70
2021/08/02 03:33:05;;;;;;;3.33;1.27;;;;;;;20.96;46.50;101500.38;4939982;29;20138;-69
2021/08/02 03:35:33;;;;;;;1.80;1.10;;;;;;;20.97;46.57;101499.38;4952135;29;20078;-69
2021/08/02 03:38:01;;;;;;;2.65;1.42;;;;;;;20.96;46.30;101501.22;4951858;28;20055;-70
2021/08/02 03:40:27;;;;;;;2.55;1.17;;;;;;;20.96;46.34;101498.53;4951049;29;20042;-70
2021/08/02 03:42:54;;;;;;;2.38;1.10;;;;;;;20.97;46.38;101510.03;4952351;29;20039;-70
2021/08/02 03:45:19;;;;;;;3.30;1.27;;;;;;;20.96;46.27;101509.22;4952451;29;20035;-69
2021/08/02 03:47:46;;;;;;;2.42;1.20;;;;;;;20.97;46.12;101504.72;4951470;29;20070;-69
2021/08/02 03:50:12;;;;;;;2.33;1.33;;;;;;;20.97;46.17;101508.19;4952192;29;20086;-69
2021/08/02 03:52:38;;;;;;;2.33;1.20;;;;;;;20.96;46.33;101509.22;4951884;29;20047;-69
2021/08/02 03:55:06;;;;;;;2.33;1.40;;;;;;;20.97;46.26;101518.88;4951251;29;20043;-69
2021/08/02 03:57:32;;;;;;;2.55;1.25;;;;;;;20.96;46.03;101508.38;4951744;29;20032;-69
2021/08/02 03:59:58;;;;;;;2.85;1.55;;;;;;;20.95;45.85;101504.91;4951920;29;20035;-69
2021/08/02 04:02:23;;;;;;;2.90;1.33;;;;;;;20.95;46.27;101507.56;4946340;29;20409;-69
2021/08/02 04:04:49;;;;;;;2.10;1.40;;;;;;;20.93;46.10;101505.09;4951108;29;20349;-69
2021/08/02 04:07:14;;;;;;;3.17;1.20;;;;;;;20.94;45.96;101496.06;4952081;29;20102;-69
2021/08/02 04:09:40;;;;;;;4.30;1.48;;;;;;;20.94;46.14;101506.75;4950837;29;20222;-69
2021/08/02 04:12:06;;;;;;;2.30;1.13;;;;;;;20.94;45.85;101501.41;4952187;29;20090;-69
2021/08/02 04:14:31;;;;;;;2.25;1.23;;;;;;;20.95;45.91;101502.22;4951281;29;20039;-69
2021/08/02 04:16:57;;;;;;;1.65;1.10;;;;;;;20.93;46.26;101505.09;4952015;29;20031;-69
2021/08/02 04:19:22;;;;;;;2.78;1.60;;;;;;;20.94;45.85;101506.75;4951594;29;20035;-70
2021/08/02 04:21:48;;;;;;;1.95;1.25;;;;;;;20.94;46.09;101508.59;4951083;29;20046;-69
2021/08/02 04:24:13;;;;;;;2.10;1.10;;;;;;;20.95;46.23;101507.56;4950252;28;20126;-69
2021/08/02 04:26:39;;;;;;;3.45;1.48;;;;;;;20.94;46.28;101505.91;4951394;29;20477;-69
2021/08/02 04:29:04;;;;;;;2.00;1.40;;;;;;;20.93;45.91;101510.44;4951370;29;20540;-69
2021/08/02 04:31:31;;;;;;;3.83;1.48;;;;;;;20.92;45.93;101508.78;4951580;29;20055;-69
2021/08/02 04:33:57;;;;;;;2.03;1.30;;;;;;;20.93;46.13;101518.44;4957035;28;20153;-69
2021/08/02 04:36:23;;;;;;;2.40;1.48;;;;;;;20.93;46.10;101514.94;4965777;28;20129;-69
2021/08/02 04:38:49;;;;;;;2.65;1.30;;;;;;;20.93;45.96;101517.59;4950926;28;20035;-69
2021/08/02 04:41:14;;;;;;;2.70;1.40;;;;;;;20.92;46.18;101516.78;4951580;29;20484;-69
2021/08/02 04:43:40;;;;;;;2.65;1.50;;;;;;;20.93;46.17;101517.59;4933893;29;20047;-69
2021/08/02 04:46:05;;;;;;;2.95;1.27;;;;;;;20.92;46.16;101518.63;4951246;29;20039;-69
2021/08/02 04:48:31;;;;;;;2.95;1.48;;;;;;;20.92;46.36;101519.44;4951109;29;20083;-69
2021/08/02 04:50:56;;;;;;;2.45;1.40;;;;;;;20.93;46.25;101522.94;4950370;28;20381;-69
2021/08/02 04:53:22;;;;;;;2.05;1.20;;;;;;;20.92;46.15;101524.78;4950421;29;20445;-69
2021/08/02 04:55:47;;;;;;;3.65;1.60;;;;;;;20.92;46.14;101524.78;4950423;29;20035;-69
2021/08/02 04:58:12;;;;;;;3.28;1.52;;;;;;;20.92;45.77;101524.78;4951011;29;20087;-69
2021/08/02 05:00:38;;;;;;;3.13;1.75;;;;;;;20.91;45.70;101531.13;4946791;28;20039;-69
2021/08/02 05:03:03;;;;;;;2.05;1.50;;;;;;;20.90;45.64;101525.97;4950139;28;20046;-69
2021/08/02 05:05:29;;;;;;;1.70;1.30;;;;;;;20.89;45.62;101525.16;4951104;28;20043;-69
2021/08/02 05:07:54;;;;;;;3.33;1.63;;;;;;;20.90;45.71;101524.16;4932999;29;20039;-69
2021/08/02 05:10:20;;;;;;;3.63;1.70;;;;;;;20.90;45.96;101531.31;4950007;28;20598;-69
2021/08/02 05:12:46;;;;;;;2.65;1.33;;;;;;;20.89;45.95;101527.81;4950594;28;20629;-69
2021/08/02 05:15:12;;;;;;;1.92;1.30;;;;;;;20.88;45.84;101523.50;4951014;28;20039;-69
2021/08/02 05:17:39;;;;;;;2.90;1.75;;;;;;;20.89;46.11;101529.66;4950243;28;20043;-69
2021/08/02 05:20:06;;;;;;;4.05;1.70;;;;;;;20.89;45.96;101524.34;4950635;29;20122;-69
2021/08/02 05:22:32;;;;;;;2.97;1.50;;;;;;;20.88;45.61;101528.84;4950913;29;20066;-69
2021/08/02 05:24:57;;;;;;;1.63;1.30;;;;;;;20.88;45.99;101520.84;4949428;29;20063;-69
2021/08/02 05:27:23;;;;;;;2.92;1.63;;;;;;;20.88;45.78;101526.19;4951168;29;20054;-69
2021/08/02 05:29:48;;;;;;;2.50;1.45;;;;;;;20.88;45.80;101523.50;4949962;29;20069;-69
2021/08/02 05:32:14;;;;;;;2.22;1.35;;;;;;;20.88;46.13;101520.84;4950924;29;20400;-69
2021/08/02 05:34:43;;;;;;;2.63;1.50;;;;;;;20.88;45.75;101512.84;4947102;28;20507;-69
2021/08/02 05:37:09;;;;;;;2.05;1.42;;;;;;;20.88;45.57;101512.00;4966086;28;20031;-69
2021/08/02 05:39:35;;;;;;;3.38;1.70;;;;;;;20.89;45.74;101511.00;4949611;29;20042;-69
2021/08/02 05:42:00;;;;;;;2.13;1.40;;;;;;;20.88;45.96;101510.19;4949641;29;20039;-70
2021/08/02 05:44:26;;;;;;;2.22;1.30;;;;;;;20.87;45.98;101505.84;4950479;29;20491;-69
2021/08/02 05:46:52;;;;;;;3.88;1.60;;;;;;;20.88;45.92;101502.16;4950601;29;20508;-69
2021/08/02 05:49:17;;;;;;;2.38;1.70;;;;;;;20.88;46.06;101501.34;4932849;29;20035;-69
2021/08/02 05:51:43;;;;;;;3.50;1.40;;;;;;;20.87;45.84;101505.03;4950843;29;20469;-69
2021/08/02 05:54:08;;;;;;;4.75;1.58;;;;;;;20.87;45.59;101503.19;4948958;29;20332;-69
2021/08/02 05:56:34;;;;;;;1.73;1.40;;;;;;;20.86;45.53;101512.22;4950710;29;20039;-69
2021/08/02 05:58:59;;;;;;;3.53;1.60;;;;;;;20.86;45.55;101509.53;4949652;29;20053;-69
2021/08/02 06:01:25;;;;;;;2.85;1.70;;;;;;;20.87;45.35;101507.69;4949732;28;20023;-69
2021/08/02 06:03:51;;;;;;;2.88;1.38;;;;;;;20.86;45.55;101498.03;4936694;29;20392;-69
2021/08/02 06:06:17;;;;;;;5.03;1.80;;;;;;;20.86;45.80;101495.38;4953544;28;20050;-69
2021/08/02 06:08:43;;;;;;;2.42;1.58;;;;;;;20.86;45.50;101506.06;4953701;28;20046;-69
2021/08/02 06:11:08;;;;;;;3.08;1.70;;;;;;;20.86;45.32;101506.06;4936148;29;20376;-69
2021/08/02 06:13:34;;;;;;;2.40;1.40;;;;;;;20.85;45.37;101507.88;4936076;29;20039;-69
2021/08/02 06:16:00;;;;;;;1.88;1.35;;;;;;;20.84;45.50;101505.41;4953752;28;20109;-69
2021/08/02 06:18:26;;;;;;;2.30;1.58;;;;;;;20.84;45.27;101506.25;4953992;28;20046;-69
2021/08/02 06:20:52;;;;;;;3.78;1.73;;;;;;;20.84;45.67;101502.75;4953503;29;20055;-69
2021/08/02 06:23:17;;;;;;;5.40;2.13;;;;;;;20.82;45.42;101500.25;4952508;29;20757;-69
2021/08/02 06:25:42;;;;;;;2.60;1.33;;;;;;;20.83;45.31;101501.09;4953793;29;20495;-69
2021/08/02 06:28:08;;;;;;;2.47;1.40;;;;;;;20.81;45.16;101503.91;4935812;29;20072;-69
2021/08/02 06:30:34;;;;;;;2.60;1.40;;;;;;;20.81;45.24;101503.09;4954058;29;20045;-69
2021/08/02 06:32:59;;;;;;;2.33;1.50;;;;;;;20.80;45.41;101494.28;4954212;28;20035;-69
2021/08/02 06:35:26;;;;;;;3.88;1.58;;;;;;;20.80;45.54;101496.13;4972561;28;20105;-69
2021/08/02 06:37:51;;;;;;;2.78;1.50;;;;;;;20.80;45.16;101494.28;4945852;29;20055;-69
2021/08/02 06:40:17;;;;;;;4.43;1.67;;;;;;;20.81;45.14;101495.91;4965759;28;20408;-69
2021/08/02 06:42:43;;;;;;;2.72;1.55;;;;;;;20.80;45.50;101494.28;4936409;29;20031;-69
2021/08/02 06:45:09;;;;;;;2.90;1.60;;;;;;;20.81;45.65;101492.44;4953366;29;20038;-70
2021/08/02 06:47:35;;;;;;;2.55;1.45;;;;;;;20.81;45.62;101503.91;4952842;29;20130;-69
2021/08/02 06:50:00;;;;;;;2.83;1.70;;;;;;;20.81;45.11;101501.25;4953342;29;20110;-69
2021/08/02 06:52:26;;;;;;;2.30;1.60;;;;;;;20.80;45.17;101510.28;4953160;29;20063;-69
2021/08/02 06:54:51;;;;;;;3.63;1.80;;;;;;;20.80;45.54;101502.28;4952549;29;20155;-69
2021/08/02 06:57:16;;;;;;;2.33;1.30;;;;;;;20.80;45.16;101504.94;4952835;29;20039;-69
2021/08/02 06:59:42;;;;;;;2.67;1.63;;;;;;;20.80;45.26;101510.28;4953404;29;20027;-69
2021/08/02 07:02:07;;;;;;;5.32;1.90;;;;;;;20.80;45.18;101504.13;4949102;29;20532;-69
2021/08/02 07:04:33;;;;;;;3.33;1.60;;;;;;;20.79;44.98;101507.78;4952625;29;20034;-69
2021/08/02 07:06:58;;;;;;;2.92;1.63;;;;;;;20.80;45.35;101499.59;4952893;29;20453;-69
2021/08/02 07:09:24;;;;;;;4.07;1.60;;;;;;;20.79;45.28;101497.94;4951270;29;20043;-70
2021/08/02 07:11:50;;;;;;;2.65;1.65;;;;;;;20.78;44.94;101512.31;4952954;28;20148;-69
2021/08/02 07:14:15;;;;;;;2.85;1.45;;;;;;;20.77;45.15;101509.81;4951280;28;20417;-69
2021/08/02 07:16:41;;;;;;;2.63;1.45;;;;;;;20.76;44.89;101502.84;4953290;29;20488;-70
2021/08/02 07:19:06;;;;;;;2.50;1.58;;;;;;;20.77;45.05;101501.81;4952768;29;20030;-70
2021/08/02 07:21:32;;;;;;;2.83;1.60;;;;;;;20.78;44.78;101503.47;4952105;29;20043;-69
2021/08/02 07:23:58;;;;;;;2.58;1.60;;;;;;;20.77;45.22;101494.66;4951248;28;20061;-69
2021/08/02 07:26:24;;;;;;;3.80;1.67;;;;;;;20.78;44.89;101501.63;4952254;29;20301;-70
2021/08/02 07:28:50;;;;;;;3.70;1.80;;;;;;;20.77;44.75;101497.31;4952724;29;20047;-70
2021/08/02 07:31:15;;;;;;;2.58;1.70;;;;;;;20.77;44.83;101492.00;4952113;29;20508;-70
2021/08/02 07:33:41;;;;;;;2.35;1.58;;;;;;;20.76;45.02;101493.00;4959275;28;20034;-70
2021/08/02 07:36:07;;;;;;;3.20;1.48;;;;;;;20.75;44.88;101490.53;4971331;28;20113;-70
2021/08/02 07:38:34;;;;;;;3.58;1.70;;;;;;;20.75;44.72;101485.19;4955790;28;20043;-69
2021/08/02 07:41:00;;;;;;;4.07;1.80;;;;;;;20.75;44.84;101482.53;4951975;29;20046;-70
2021/08/02 07:43:25;;;;;;;3.05;1.52;;;;;;;20.76;44.60;101481.50;4952631;29;20047;-70
2021/08/02 07:45:51;;;;;;;3.55;1.50;;;;;;;20.74;44.98;101463.03;4952337;29;20127;-70
2021/08/02 07:48:16;;;;;;;2.55;1.60;;;;;;;20.74;45.07;101467.56;4951908;29;20070;-69
2021/08/02 07:50:42;;;;;;;2.95;1.60;;;;;;;20.73;44.61;101465.91;4951952;29;20046;-69
2021/08/02 07:53:07;;;;;;;3.30;1.50;;;;;;;20.72;44.91;101465.06;4951487;29;20112;-70
2021/08/02 07:55:32;;;;;;;1.83;1.33;;;;;;;20.73;44.72;101471.22;4951348;28;20039;-69
2021/08/02 07:57:58;;;;;;;3.65;1.63;;;;;;;20.72;44.41;101466.91;4951927;28;20042;-70
2021/08/02 08:00:23;;;;;;;2.80;1.70;;;;;;;20.71;44.42;101474.09;4950976;28;20669;-69
2021/08/02 08:02:49;;;;;;;2.33;1.40;;;;;;;20.72;44.61;101481.06;4952032;28;20057;-70
2021/08/02 08:05:15;;;;;;;7.07;1.70;;;;;;;20.72;44.64;101472.25;4951888;28;20151;-70
2021/08/02 08:07:42;;;;;;;2.78;1.50;;;;;;;20.72;44.56;101474.91;4951858;28;20065;-70
2021/08/02 08:10:08;;;;;;;5.05;1.75;;;;;;;20.72;44.52;101475.75;4950767;28;20493;-69
2021/08/02 08:12:34;;;;;;;2.13;1.30;;;;;;;20.71;44.33;101476.75;4951869;28;20035;-70
2021/08/02 08:14:59;;;;;;;2.65;1.58;;;;;;;20.70;44.67;101477.78;4951318;28;20050;-70
2021/08/02 08:17:24;;;;;;;2.47;1.35;;;;;;;20.69;44.46;101481.44;4951896;28;20047;-70
2021/08/02 08:19:50;;;;;;;2.15;1.20;;;;;;;20.68;44.41;101474.47;4951469;28;20098;-70
2021/08/02 08:22:15;;;;;;;2.67;1.30;;;;;;;20.68;44.71;101479.81;4951893;28;20039;-70
2021/08/02 08:24:41;;;;;;;3.83;1.63;;;;;;;20.67;44.64;101488.81;4950116;28;20055;-69
2021/08/02 08:27:06;;;;;;;2.75;1.38;;;;;;;20.67;44.26;101486.16;4918547;29;20555;-70
2021/08/02 08:29:31;;;;;;;3.13;1.67;;;;;;;20.68;44.39;101484.31;4951058;29;20059;-69
2021/08/02 08:31:57;;;;;;;1.70;1.20;;;;;;;20.67;44.45;101479.97;4951475;29;20047;-69
2021/08/02 08:34:22;;;;;;;2.85;1.38;;;;;;;20.67;44.25;101482.63;4963790;28;20496;-70
2021/08/02 08:36:48;;;;;;;1.73;1.17;;;;;;;20.66;44.40;101473.81;4968784;28;20035;-69
2021/08/02 08:39:13;;;;;;;2.33;1.30;;;;;;;20.66;44.04;101475.66;4950892;29;20031;-70
2021/08/02 08:41:41;;;;;;;2.80;1.63;;;;;;;20.66;44.18;101475.66;4951698;29;20549;-70
2021/08/02 08:44:07;;;;;;;4.45;1.30;;;;;;;20.66;44.19;101475.66;4950497;29;20035;-70
2021/08/02 08:46:33;;;;;;;1.58;1.27;;;;;;;20.64;44.46;101478.50;4951504;29;20035;-70
2021/08/02 08:48:59;;;;;;;2.53;1.10;;;;;;;20.61;44.45;101479.72;4950360;28;20724;-69
2021/08/02 08:51:26;;;;;;;1.98;1.45;;;;;;;20.60;44.56;101472.72;4951294;28;20064;-70
2021/08/02 08:53:53;;;;;;;2.13;1.30;;;;;;;20.58;44.50;101469.41;4950440;28;20036;-69
2021/08/02 08:56:18;;;;;;;2.15;1.30;;;;;;;20.57;44.38;101459.78;4950744;28;20031;-70
2021/08/02 08:58:44;;;;;;;1.88;1.27;;;;;;;20.56;44.65;101465.31;4951140;29;20054;-70
2021/08/02 09:01:10;;;;;;;2.70;1.52;;;;;;;20.58;44.53;101468.59;4946953;29;20122;-70
2021/08/02 09:03:35;;;;;;;2.00;1.38;;;;;;;20.56;44.46;101458.13;4950989;28;20039;-70
2021/08/02 09:06:01;;;;;;;2.65;1.30;;;;;;;20.57;44.35;101459.78;4950509;28;20054;-69
2021/08/02 09:08:27;;;;;;;2.88;1.60;;;;;;;20.57;44.47;101456.28;4950874;29;20400;-70
2021/08/02 09:11:00;;;;;;;2.55;1.40;;;;;;;20.53;44.18;101455.03;4950506;29;20042;-70
2021/08/02 09:13:31;;;;;;;2.78;1.45;;;;;;;20.54;44.34;101456.66;4950833;29;20046;-69
2021/08/02 09:15:57;;;;;;;1.90;1.20;;;;;;;20.55;44.29;101458.31;4950521;29;20066;-69
2021/08/02 09:18:23;;;;;;;2.83;1.38;;;;;;;20.55;44.62;101448.47;4950557;29;20589;-70
2021/08/02 09:21:02;;;;;;;3.38;1.35;;;;;;;20.51;44.27;101457.88;4950547;29;20085;-70
2021/08/02 09:23:28;;;;;;;2.88;1.40;;;;;;;20.53;44.33;101461.19;4937721;28;20047;-69
2021/08/02 09:25:55;;;;;;;3.55;1.38;;;;;;;20.53;44.30;101463.84;4950429;29;20097;-70
2021/08/02 09:28:23;;;;;;;3.83;1.65;;;;;;;20.54;44.57;101459.34;4950072;29;20035;-70
2021/08/02 09:30:57;;;;;;;2.35;1.60;;;;;;;20.53;44.28;101461.19;4950372;29;20091;-70
2021/08/02 09:33:23;;;;;;;2.30;1.40;;;;;;;20.53;44.46;101460.34;4954322;28;20038;-70
2021/08/02 09:35:51;;;;;;;2.67;1.50;;;;;;;20.54;44.58;101465.50;4969315;28;20046;-70
2021/08/02 09:38:20;;;;;;;2.47;1.45;;;;;;;20.55;44.66;101468.97;4967981;28;20039;-70
2021/08/02 09:40:51;;;;;;;2.55;1.40;;;;;;;20.53;44.58;101469.16;4950401;28;20046;-70
2021/08/02 09:43:22;;;;;;;3.50;1.65;;;;;;;20.54;44.71;101464.66;4949917;29;20101;-70
2021/08/02 09:45:58;;;;;;;2.70;1.52;;;;;;;20.54;44.53;101468.16;4950174;29;20034;-70
2021/08/02 09:48:35;;;;;;;2.63;1.40;;;;;;;20.52;44.65;101456.84;4950244;29;20122;-70
2021/08/02 09:51:07;;;;;;;1.90;1.30;;;;;;;20.53;44.50;101461.19;4949706;28;20043;-69
2021/08/02 09:53:37;;;;;;;2.53;1.50;;;;;;;20.53;44.37;101463.84;4950387;28;20027;-70
2021/08/02 09:56:02;;;;;;;2.17;1.23;;;;;;;20.53;44.59;101463.84;4949501;29;20085;-69
2021/08/02 09:58:28;;;;;;;3.53;1.92;;;;;;;20.53;44.35;101465.69;4950271;28;20449;-70
2021/08/02 10:00:54;;;;;;;2.00;1.50;;;;;;;20.50;44.13;101466.03;4946126;29;20032;-70
2021/08/02 10:03:20;;;;;;;3.03;1.70;;;;;;;20.49;44.21;101462.53;4950202;29;20039;-70
2021/08/02 10:05:49;;;;;;;2.90;1.67;;;;;;;20.49;44.52;101467.88;4950044;29;20045;-70
2021/08/02 10:08:17;;;;;;;6.68;1.65;;;;;;;20.50;44.17;101461.53;4949639;29;20063;-69
2021/08/02 10:10:42;;;;;;;2.55;1.67;;;;;;;20.52;44.23;101464.03;4949709;29;20536;-69
2021/08/02 10:13:08;;;;;;;2.33;1.60;;;;;;;20.52;44.41;101456.84;4949900;29;20031;-70
2021/08/02 10:15:34;;;;;;;3.13;1.90;;;;;;;20.54;43.93;101462.00;4950205;29;20422;-70
2021/08/02 10:18:02;;;;;;;3.25;1.90;;;;;;;20.53;43.82;101455.84;4949654;29;20035;-69
2021/08/02 10:20:32;;;;;;;2.80;2.00;;;;;;;20.54;44.15;101451.34;4950201;29;20038;-70
2021/08/02 10:22:59;;;;;;;2.88;1.80;;;;;;;20.53;43.95;101458.50;4950553;29;20051;-70
2021/08/02 10:25:34;;;;;;;2.67;1.73;;;;;;;20.52;44.28;101450.69;4949249;29;20055;-70
2021/08/02 10:28:12;;;;;;;3.25;1.90;;;;;;;20.52;43.87;101459.53;4949647;29;20031;-69
2021/08/02 10:30:39;;;;;;;3.63;1.80;;;;;;;20.54;43.92;101446.84;4950392;29;20035;-70
2021/08/02 10:33:04;;;;;;;2.63;1.70;;;;;;;20.55;43.94;101453.00;4934221;28;20039;-69
2021/08/02 10:35:46;;;;;;;4.35;1.83;;;;;;;20.52;44.28;101450.69;4951613;28;20034;-70
2021/08/02 10:38:13;;;;;;;3.10;1.80;;;;;;;20.54;44.12;101446.84;4956549;28;20067;-70
2021/08/02 10:40:57;;;;;;;3.72;1.83;;;;;;;20.54;44.27;101451.34;4949405;29;20113;-70
2021/08/02 10:43:26;;;;;;;3.45;1.90;;;;;;;20.53;44.21;101455.03;4949352;29;20039;-71
2021/08/02 10:45:51;;;;;;;2.53;1.80;;;;;;;20.53;44.13;101455.84;4932653;29;20043;-70
2021/08/02 10:48:28;;;;;;;4.13;2.00;;;;;;;20.52;44.33;101459.53;4950758;28;20329;-70
2021/08/02 10:50:54;;;;;;;3.50;2.03;;;;;;;20.53;44.23;101461.19;4953198;28;20170;-70
2021/08/02 10:53:20;;;;;;;4.60;2.28;;;;;;;20.54;44.57;101462.81;4952692;29;20039;-70
2021/08/02 10:55:49;;;;;;;3.35;2.13;;;;;;;20.55;44.16;101458.31;4952461;28;20078;-70
2021/08/02 10:58:28;;;;;;;3.08;1.85;;;;;;;20.52;44.50;101461.38;4952833;28;20154;-70
2021/08/02 11:00:55;;;;;;;3.35;1.90;;;;;;;20.54;44.61;101465.50;4944601;28;20109;-70
2021/08/02 11:03:32;;;;;;;3.42;2.10;;;;;;;20.51;44.71;101459.69;4952753;28;20039;-70
2021/08/02 11:06:08;;;;;;;3.22;1.83;;;;;;;20.50;44.75;101456.19;4935708;28;20041;-69
2021/08/02 11:08:55;;;;;;;3.00;2.00;;;;;;;20.48;44.69;101460.06;4952647;28;20069;-70
2021/08/02 11:11:30;;;;;;;3.30;2.05;;;;;;;20.52;44.73;101461.38;4952783;29;20062;-70
2021/08/02 11:14:09;;;;;;;3.13;2.00;;;;;;;20.48;44.62;101457.41;4952934;28;20146;-69
2021/08/02 11:16:49;;;;;;;4.65;2.20;;;;;;;20.44;44.90;101456.94;4939684;29;20759;-70
2021/08/02 11:19:27;;;;;;;2.72;1.88;;;;;;;20.45;44.90;101455.13;4952368;29;20449;-69
2021/08/02 11:21:55;;;;;;;3.80;2.13;;;;;;;20.46;44.89;101456.75;4940967;29;20074;-70
2021/08/02 11:24:21;;;;;;;3.33;2.10;;;;;;;20.46;45.15;101459.44;4951289;29;20513;-69
2021/08/02 11:26:54;;;;;;;4.65;2.50;;;;;;;20.45;45.02;101463.09;4952636;29;20138;-70